sensor_id;sensor_type;location;lat;lon;timestamp;P1;durP1;ratioP1;P2;durP2;ratioP2
46377;SDS011;32083;47.360;9.650;2024-02-23T05:01:10;0.30;;;0.22;;
46377;SDS011;32083;47.360;9.650;2024-02-23T05:03:36;0.50;;;0.38;;
46377;SDS011;32083;47.360;9.650;2024-02-23T05:06:04;2.05;;;0.65;;
46377;SDS011;32083;47.360;9.650;2024-02-23T05:08:31;0.70;;;0.40;;
46377;SDS011;32083;47.360;9.650;2024-02-23T05:10:57;2.08;;;0.50;;
46377;SDS011;32083;47.360;9.650;2024-02-23T05:13:23;0.68;;;0.32;;
46377;SDS011;32083;47.360;9.650;2024-02-23T05:15:50;2.28;;;0.50;;
46377;SDS011;32083;47.360;9.650;2024-02-23T05:18:16;0.65;;;0.43;;
46377;SDS011;32083;47.360;9.650;2024-02-23T05:20:42;0.30;;;0.20;;
46377;SDS011;32083;47.360;9.650;2024-02-23T05:23:08;1.88;;;0.52;;
46377;SDS011;32083;47.360;9.650;2024-02-23T05:25:34;0.68;;;0.30;;
46377;SDS011;32083;47.360;9.650;2024-02-23T05:28:00;1.20;;;0.30;;
46377;SDS011;32083;47.360;9.650;2024-02-23T05:30:27;4.63;;;0.50;;
46377;SDS011;32083;47.360;9.650;2024-02-23T05:32:56;1.55;;;0.30;;
46377;SDS011;32083;47.360;9.650;2024-02-23T05:35:24;1.52;;;0.30;;
46377;SDS011;32083;47.360;9.650;2024-02-23T05:37:51;0.55;;;0.52;;
46377;SDS011;32083;47.360;9.650;2024-02-23T05:40:17;2.45;;;0.90;;
46377;SDS011;32083;47.360;9.650;2024-02-23T05:42:43;1.45;;;0.68;;
46377;SDS011;32083;47.360;9.650;2024-02-23T05:45:09;2.67;;;1.02;;
46377;SDS011;32083;47.360;9.650;2024-02-23T05:47:36;1.60;;;1.08;;
46377;SDS011;32083;47.360;9.650;2024-02-23T05:50:07;3.95;;;0.85;;
46377;SDS011;32083;47.360;9.650;2024-02-23T05:52:37;1.50;;;0.77;;
46377;SDS011;32083;47.360;9.650;2024-02-23T05:55:04;1.33;;;0.90;;
46377;SDS011;32083;47.360;9.650;2024-02-23T05:57:30;1.30;;;0.82;;
46377;SDS011;32083;47.360;9.650;2024-02-23T05:59:57;1.23;;;0.75;;
46377;SDS011;32083;47.360;9.650;2024-02-23T06:02:23;2.42;;;0.82;;
46377;SDS011;32083;47.360;9.650;2024-02-23T06:04:50;1.15;;;0.60;;
46377;SDS011;32083;47.360;9.650;2024-02-23T06:07:16;1.55;;;0.95;;
46377;SDS011;32083;47.360;9.650;2024-02-23T06:09:42;2.75;;;0.70;;
46377;SDS011;32083;47.360;9.650;2024-02-23T06:12:09;1.55;;;0.63;;
46377;SDS011;32083;47.360;9.650;2024-02-23T06:14:35;1.30;;;0.80;;
46377;SDS011;32083;47.360;9.650;2024-02-23T06:17:02;1.08;;;0.73;;
46377;SDS011;32083;47.360;9.650;2024-02-23T06:19:29;1.42;;;0.65;;
46377;SDS011;32083;47.360;9.650;2024-02-23T06:21:55;1.83;;;1.63;;
46377;SDS011;32083;47.360;9.650;2024-02-23T06:24:21;2.60;;;2.10;;
46377;SDS011;32083;47.360;9.650;2024-02-23T06:26:47;4.05;;;1.33;;
46377;SDS011;32083;47.360;9.650;2024-02-23T06:29:14;3.33;;;1.95;;
46377;SDS011;32083;47.360;9.650;2024-02-23T06:31:40;2.33;;;1.35;;
46377;SDS011;32083;47.360;9.650;2024-02-23T06:34:07;2.15;;;1.00;;
46377;SDS011;32083;47.360;9.650;2024-02-23T06:36:33;0.75;;;0.60;;
46377;SDS011;32083;47.360;9.650;2024-02-23T06:38:59;1.02;;;0.50;;
46377;SDS011;32083;47.360;9.650;2024-02-23T06:41:25;1.08;;;0.50;;
46377;SDS011;32083;47.360;9.650;2024-02-23T06:43:51;0.73;;;0.50;;
46377;SDS011;32083;47.360;9.650;2024-02-23T06:46:18;1.08;;;0.40;;
46377;SDS011;32083;47.360;9.650;2024-02-23T06:48:46;0.70;;;0.40;;
46377;SDS011;32083;47.360;9.650;2024-02-23T06:51:12;1.75;;;0.60;;
46377;SDS011;32083;47.360;9.650;2024-02-23T06:53:38;2.35;;;1.50;;
46377;SDS011;32083;47.360;9.650;2024-02-23T06:56:04;3.10;;;1.30;;
46377;SDS011;32083;47.360;9.650;2024-02-23T06:58:30;1.55;;;0.93;;
46377;SDS011;32083;47.360;9.650;2024-02-23T07:00:56;0.85;;;0.38;;
46377;SDS011;32083;47.360;9.650;2024-02-23T07:03:22;2.47;;;0.52;;
46377;SDS011;32083;47.360;9.650;2024-02-23T07:05:48;2.13;;;0.50;;
46377;SDS011;32083;47.360;9.650;2024-02-23T07:08:15;2.05;;;0.65;;
46377;SDS011;32083;47.360;9.650;2024-02-23T07:10:41;2.38;;;0.60;;
46377;SDS011;32083;47.360;9.650;2024-02-23T07:13:07;1.92;;;0.90;;
46377;SDS011;32083;47.360;9.650;2024-02-23T07:15:34;0.93;;;0.80;;
46377;SDS011;32083;47.360;9.650;2024-02-23T07:18:01;36.40;;;16.58;;
46377;SDS011;32083;47.360;9.650;2024-02-23T07:20:27;24.40;;;12.27;;
46377;SDS011;32083;47.360;9.650;2024-02-23T07:22:53;28.67;;;10.60;;
46377;SDS011;32083;47.360;9.650;2024-02-23T07:25:20;20.58;;;10.20;;
46377;SDS011;32083;47.360;9.650;2024-02-23T07:27:46;18.98;;;8.65;;
46377;SDS011;32083;47.360;9.650;2024-02-23T07:30:16;4.45;;;1.50;;
46377;SDS011;32083;47.360;9.650;2024-02-23T07:32:42;4.03;;;2.05;;
46377;SDS011;32083;47.360;9.650;2024-02-23T07:35:09;3.53;;;1.98;;
46377;SDS011;32083;47.360;9.650;2024-02-23T07:37:36;1.52;;;1.10;;
46377;SDS011;32083;47.360;9.650;2024-02-23T07:40:02;2.17;;;1.30;;
46377;SDS011;32083;47.360;9.650;2024-02-23T07:42:29;4.03;;;0.90;;
46377;SDS011;32083;47.360;9.650;2024-02-23T07:44:55;1.83;;;1.42;;
46377;SDS011;32083;47.360;9.650;2024-02-23T07:47:22;2.75;;;2.25;;
46377;SDS011;32083;47.360;9.650;2024-02-23T07:49:47;4.45;;;3.97;;
46377;SDS011;32083;47.360;9.650;2024-02-23T07:52:13;3.95;;;2.88;;
46377;SDS011;32083;47.360;9.650;2024-02-23T07:54:39;5.57;;;4.38;;
46377;SDS011;32083;47.360;9.650;2024-02-23T07:57:05;3.90;;;2.92;;
46377;SDS011;32083;47.360;9.650;2024-02-23T07:59:30;2.95;;;2.50;;
46377;SDS011;32083;47.360;9.650;2024-02-23T08:01:58;2.03;;;1.83;;
46377;SDS011;32083;47.360;9.650;2024-02-23T08:04:23;2.13;;;1.50;;
46377;SDS011;32083;47.360;9.650;2024-02-23T08:06:49;2.92;;;1.85;;
46377;SDS011;32083;47.360;9.650;2024-02-23T08:09:16;2.15;;;1.58;;
46377;SDS011;32083;47.360;9.650;2024-02-23T08:11:42;3.65;;;1.60;;
46377;SDS011;32083;47.360;9.650;2024-02-23T08:14:09;5.72;;;1.92;;
46377;SDS011;32083;47.360;9.650;2024-02-23T08:16:35;3.30;;;1.48;;
46377;SDS011;32083;47.360;9.650;2024-02-23T08:19:01;4.82;;;1.90;;
46377;SDS011;32083;47.360;9.650;2024-02-23T08:21:27;1.50;;;1.20;;
46377;SDS011;32083;47.360;9.650;2024-02-23T08:23:52;2.83;;;1.65;;
46377;SDS011;32083;47.360;9.650;2024-02-23T08:26:18;1.98;;;1.38;;
46377;SDS011;32083;47.360;9.650;2024-02-23T08:28:44;4.88;;;1.13;;
46377;SDS011;32083;47.360;9.650;2024-02-23T08:31:10;2.72;;;0.95;;
46377;SDS011;32083;47.360;9.650;2024-02-23T08:33:35;2.50;;;0.80;;
46377;SDS011;32083;47.360;9.650;2024-02-23T08:36:01;4.20;;;1.20;;
46377;SDS011;32083;47.360;9.650;2024-02-23T08:38:30;2.05;;;0.82;;
46377;SDS011;32083;47.360;9.650;2024-02-23T08:40:57;2.08;;;1.02;;
46377;SDS011;32083;47.360;9.650;2024-02-23T08:43:26;3.40;;;1.13;;
46377;SDS011;32083;47.360;9.650;2024-02-23T08:45:52;4.30;;;1.40;;
46377;SDS011;32083;47.360;9.650;2024-02-23T08:48:18;3.30;;;1.10;;
46377;SDS011;32083;47.360;9.650;2024-02-23T08:50:45;1.85;;;1.05;;
46377;SDS011;32083;47.360;9.650;2024-02-23T08:53:11;1.77;;;0.80;;
46377;SDS011;32083;47.360;9.650;2024-02-23T08:55:36;1.58;;;0.90;;
46377;SDS011;32083;47.360;9.650;2024-02-23T08:58:02;1.10;;;0.90;;
46377;SDS011;32083;47.360;9.650;2024-02-23T09:00:31;1.60;;;0.82;;
46377;SDS011;32083;47.360;9.650;2024-02-23T09:02:57;1.73;;;0.70;;
46377;SDS011;32083;47.360;9.650;2024-02-23T09:05:23;2.45;;;1.20;;
46377;SDS011;32083;47.360;9.650;2024-02-23T09:07:49;2.08;;;0.75;;
46377;SDS011;32083;47.360;9.650;2024-02-23T09:10:15;2.17;;;1.10;;
46377;SDS011;32083;47.360;9.650;2024-02-23T09:12:41;2.90;;;0.80;;
46377;SDS011;32083;47.360;9.650;2024-02-23T09:15:07;1.15;;;0.70;;
46377;SDS011;32083;47.360;9.650;2024-02-23T09:17:33;1.92;;;0.80;;
46377;SDS011;32083;47.360;9.650;2024-02-23T09:19:59;2.97;;;1.05;;
46377;SDS011;32083;47.360;9.650;2024-02-23T09:22:25;1.73;;;1.45;;
46377;SDS011;32083;47.360;9.650;2024-02-23T09:24:51;1.75;;;1.13;;
46377;SDS011;32083;47.360;9.650;2024-02-23T09:27:20;2.83;;;1.38;;
46377;SDS011;32083;47.360;9.650;2024-02-23T09:29:46;2.30;;;0.95;;
46377;SDS011;32083;47.360;9.650;2024-02-23T09:32:12;4.18;;;1.55;;
46377;SDS011;32083;47.360;9.650;2024-02-23T09:34:37;1.42;;;1.17;;
46377;SDS011;32083;47.360;9.650;2024-02-23T09:37:03;1.50;;;0.80;;
46377;SDS011;32083;47.360;9.650;2024-02-23T09:39:29;3.30;;;1.30;;
46377;SDS011;32083;47.360;9.650;2024-02-23T09:41:55;3.58;;;1.02;;
46377;SDS011;32083;47.360;9.650;2024-02-23T09:44:26;2.03;;;0.93;;
46377;SDS011;32083;47.360;9.650;2024-02-23T09:47:04;2.55;;;0.80;;
46377;SDS011;32083;47.360;9.650;2024-02-23T09:49:38;3.97;;;1.38;;
46377;SDS011;32083;47.360;9.650;2024-02-23T09:52:08;2.63;;;1.13;;
46377;SDS011;32083;47.360;9.650;2024-02-23T09:54:35;0.82;;;0.60;;
46377;SDS011;32083;47.360;9.650;2024-02-23T09:57:03;2.15;;;1.20;;
46377;SDS011;32083;47.360;9.650;2024-02-23T09:59:34;1.58;;;1.10;;
46377;SDS011;32083;47.360;9.650;2024-02-23T10:02:00;3.20;;;1.15;;
46377;SDS011;32083;47.360;9.650;2024-02-23T10:04:31;2.05;;;0.93;;
46377;SDS011;32083;47.360;9.650;2024-02-23T10:06:58;2.72;;;1.38;;
46377;SDS011;32083;47.360;9.650;2024-02-23T10:09:24;2.45;;;1.60;;
46377;SDS011;32083;47.360;9.650;2024-02-23T10:11:53;3.03;;;1.90;;
46377;SDS011;32083;47.360;9.650;2024-02-23T10:14:20;2.97;;;2.17;;
46377;SDS011;32083;47.360;9.650;2024-02-23T10:16:46;4.32;;;2.45;;
46377;SDS011;32083;47.360;9.650;2024-02-23T10:19:13;3.70;;;2.50;;
46377;SDS011;32083;47.360;9.650;2024-02-23T10:21:39;4.68;;;3.38;;
46377;SDS011;32083;47.360;9.650;2024-02-23T10:24:05;5.53;;;3.13;;
46377;SDS011;32083;47.360;9.650;2024-02-23T10:26:31;3.15;;;2.42;;
46377;SDS011;32083;47.360;9.650;2024-02-23T10:28:57;4.57;;;2.53;;
46377;SDS011;32083;47.360;9.650;2024-02-23T10:31:24;4.43;;;2.22;;
46377;SDS011;32083;47.360;9.650;2024-02-23T10:33:50;3.13;;;2.05;;
46377;SDS011;32083;47.360;9.650;2024-02-23T10:36:18;3.22;;;1.50;;
46377;SDS011;32083;47.360;9.650;2024-02-23T10:38:45;3.10;;;1.80;;
46377;SDS011;32083;47.360;9.650;2024-02-23T10:41:14;2.22;;;1.13;;
46377;SDS011;32083;47.360;9.650;2024-02-23T10:43:46;2.58;;;1.40;;
46377;SDS011;32083;47.360;9.650;2024-02-23T10:46:13;3.80;;;1.10;;
46377;SDS011;32083;47.360;9.650;2024-02-23T10:48:43;2.72;;;1.13;;
46377;SDS011;32083;47.360;9.650;2024-02-23T10:51:10;2.17;;;1.45;;
46377;SDS011;32083;47.360;9.650;2024-02-23T10:53:39;2.40;;;0.90;;
46377;SDS011;32083;47.360;9.650;2024-02-23T10:56:07;2.70;;;1.35;;
46377;SDS011;32083;47.360;9.650;2024-02-23T10:58:33;1.42;;;0.93;;
46377;SDS011;32083;47.360;9.650;2024-02-23T11:00:59;1.98;;;0.90;;
46377;SDS011;32083;47.360;9.650;2024-02-23T11:03:30;2.72;;;1.65;;
46377;SDS011;32083;47.360;9.650;2024-02-23T11:06:01;1.95;;;1.13;;
46377;SDS011;32083;47.360;9.650;2024-02-23T11:08:28;1.40;;;1.00;;
46377;SDS011;32083;47.360;9.650;2024-02-23T11:10:55;1.67;;;1.15;;
46377;SDS011;32083;47.360;9.650;2024-02-23T11:13:39;7.05;;;1.15;;
46377;SDS011;32083;47.360;9.650;2024-02-23T11:16:06;3.80;;;1.63;;
46377;SDS011;32083;47.360;9.650;2024-02-23T11:18:34;2.00;;;1.10;;
46377;SDS011;32083;47.360;9.650;2024-02-23T11:21:02;2.10;;;1.42;;
46377;SDS011;32083;47.360;9.650;2024-02-23T11:23:41;3.05;;;1.85;;
46377;SDS011;32083;47.360;9.650;2024-02-23T11:26:11;2.33;;;1.50;;
46377;SDS011;32083;47.360;9.650;2024-02-23T11:31:20;0.95;;;0.80;;
46377;SDS011;32083;47.360;9.650;2024-02-23T11:36:30;2.22;;;1.38;;
46377;SDS011;32083;47.360;9.650;2024-02-23T11:39:00;1.93;;;0.80;;
46377;SDS011;32083;47.360;9.650;2024-02-23T11:41:27;2.10;;;1.10;;
46377;SDS011;32083;47.360;9.650;2024-02-23T11:43:54;1.80;;;1.08;;
46377;SDS011;32083;47.360;9.650;2024-02-23T11:46:21;1.63;;;0.75;;
46377;SDS011;32083;47.360;9.650;2024-02-23T11:48:48;2.42;;;1.05;;
46377;SDS011;32083;47.360;9.650;2024-02-23T11:51:21;3.13;;;1.40;;
46377;SDS011;32083;47.360;9.650;2024-02-23T11:53:48;1.42;;;1.00;;
46377;SDS011;32083;47.360;9.650;2024-02-23T11:56:14;1.95;;;1.02;;
46377;SDS011;32083;47.360;9.650;2024-02-23T11:58:41;3.67;;;1.35;;
46377;SDS011;32083;47.360;9.650;2024-02-23T12:01:07;3.30;;;1.55;;
46377;SDS011;32083;47.360;9.650;2024-02-23T12:03:33;1.85;;;1.25;;
46377;SDS011;32083;47.360;9.650;2024-02-23T12:06:00;5.32;;;1.30;;
46377;SDS011;32083;47.360;9.650;2024-02-23T12:08:27;4.10;;;1.80;;
46377;SDS011;32083;47.360;9.650;2024-02-23T12:10:54;1.65;;;1.20;;
46377;SDS011;32083;47.360;9.650;2024-02-23T12:13:21;2.53;;;1.20;;
46377;SDS011;32083;47.360;9.650;2024-02-23T12:15:48;1.73;;;1.33;;
46377;SDS011;32083;47.360;9.650;2024-02-23T12:18:18;2.17;;;1.02;;
46377;SDS011;32083;47.360;9.650;2024-02-23T12:20:48;3.97;;;1.25;;
46377;SDS011;32083;47.360;9.650;2024-02-23T12:23:15;3.05;;;1.23;;
46377;SDS011;32083;47.360;9.650;2024-02-23T12:26:03;4.75;;;1.38;;
46377;SDS011;32083;47.360;9.650;2024-02-23T12:28:28;2.53;;;1.50;;
46377;SDS011;32083;47.360;9.650;2024-02-23T12:31:01;5.18;;;1.40;;
46377;SDS011;32083;47.360;9.650;2024-02-23T12:35:58;4.63;;;1.10;;
46377;SDS011;32083;47.360;9.650;2024-02-23T12:38:24;1.42;;;0.98;;
46377;SDS011;32083;47.360;9.650;2024-02-23T12:40:50;2.55;;;1.20;;
46377;SDS011;32083;47.360;9.650;2024-02-23T12:43:17;2.58;;;0.90;;
46377;SDS011;32083;47.360;9.650;2024-02-23T12:45:46;1.42;;;0.85;;
46377;SDS011;32083;47.360;9.650;2024-02-23T12:48:19;3.10;;;0.98;;
46377;SDS011;32083;47.360;9.650;2024-02-23T12:50:46;1.58;;;0.80;;
46377;SDS011;32083;47.360;9.650;2024-02-23T12:56:06;3.53;;;0.75;;
46377;SDS011;32083;47.360;9.650;2024-02-23T12:58:40;2.00;;;1.10;;
46377;SDS011;32083;47.360;9.650;2024-02-23T13:01:07;1.73;;;0.82;;
46377;SDS011;32083;47.360;9.650;2024-02-23T13:03:34;2.47;;;1.15;;
46377;SDS011;32083;47.360;9.650;2024-02-23T13:06:01;1.45;;;0.77;;
46377;SDS011;32083;47.360;9.650;2024-02-23T13:08:28;1.42;;;0.90;;
46377;SDS011;32083;47.360;9.650;2024-02-23T13:10:54;1.50;;;0.80;;
46377;SDS011;32083;47.360;9.650;2024-02-23T13:13:21;2.20;;;1.02;;
46377;SDS011;32083;47.360;9.650;2024-02-23T13:15:48;1.48;;;0.80;;
46377;SDS011;32083;47.360;9.650;2024-02-23T13:18:15;2.90;;;0.90;;
46377;SDS011;32083;47.360;9.650;2024-02-23T13:20:41;1.38;;;0.73;;
46377;SDS011;32083;47.360;9.650;2024-02-23T13:23:08;2.60;;;1.00;;
46377;SDS011;32083;47.360;9.650;2024-02-23T13:25:38;3.10;;;0.88;;
46377;SDS011;32083;47.360;9.650;2024-02-23T13:28:05;2.40;;;1.05;;
46377;SDS011;32083;47.360;9.650;2024-02-23T13:30:32;3.35;;;1.45;;
46377;SDS011;32083;47.360;9.650;2024-02-23T13:32:58;4.40;;;0.90;;
46377;SDS011;32083;47.360;9.650;2024-02-23T13:35:25;3.40;;;1.13;;
46377;SDS011;32083;47.360;9.650;2024-02-23T13:37:51;1.88;;;1.08;;
46377;SDS011;32083;47.360;9.650;2024-02-23T13:40:18;1.88;;;1.20;;
46377;SDS011;32083;47.360;9.650;2024-02-23T13:42:44;6.60;;;3.08;;
46377;SDS011;32083;47.360;9.650;2024-02-23T13:45:14;3.35;;;2.10;;
46377;SDS011;32083;47.360;9.650;2024-02-23T13:47:41;2.92;;;1.50;;
46377;SDS011;32083;47.360;9.650;2024-02-23T13:50:09;25.30;;;12.45;;
46377;SDS011;32083;47.360;9.650;2024-02-23T13:52:36;5.57;;;1.98;;
46377;SDS011;32083;47.360;9.650;2024-02-23T13:55:02;4.90;;;1.95;;
46377;SDS011;32083;47.360;9.650;2024-02-23T13:57:28;2.80;;;1.40;;
46377;SDS011;32083;47.360;9.650;2024-02-23T13:59:54;2.83;;;1.63;;
46377;SDS011;32083;47.360;9.650;2024-02-23T14:02:26;2.13;;;1.50;;
46377;SDS011;32083;47.360;9.650;2024-02-23T14:04:55;4.43;;;1.75;;
46377;SDS011;32083;47.360;9.650;2024-02-23T14:07:28;2.08;;;1.23;;
46377;SDS011;32083;47.360;9.650;2024-02-23T14:09:54;3.83;;;1.30;;
46377;SDS011;32083;47.360;9.650;2024-02-23T14:12:20;4.57;;;1.40;;
46377;SDS011;32083;47.360;9.650;2024-02-23T14:14:46;1.67;;;1.25;;
46377;SDS011;32083;47.360;9.650;2024-02-23T14:17:12;2.25;;;1.30;;
46377;SDS011;32083;47.360;9.650;2024-02-23T14:19:39;2.85;;;1.67;;
46377;SDS011;32083;47.360;9.650;2024-02-23T14:22:04;3.70;;;1.23;;
46377;SDS011;32083;47.360;9.650;2024-02-23T14:24:31;1.88;;;1.55;;
46377;SDS011;32083;47.360;9.650;2024-02-23T14:26:57;1.98;;;1.50;;
46377;SDS011;32083;47.360;9.650;2024-02-23T14:29:23;5.78;;;1.13;;
46377;SDS011;32083;47.360;9.650;2024-02-23T14:31:49;4.85;;;1.23;;
46377;SDS011;32083;47.360;9.650;2024-02-23T14:34:15;2.60;;;1.30;;
46377;SDS011;32083;47.360;9.650;2024-02-23T14:36:40;2.92;;;1.45;;
46377;SDS011;32083;47.360;9.650;2024-02-23T14:39:07;2.45;;;1.30;;
46377;SDS011;32083;47.360;9.650;2024-02-23T14:41:33;2.55;;;1.30;;
46377;SDS011;32083;47.360;9.650;2024-02-23T14:43:59;3.50;;;2.60;;
46377;SDS011;32083;47.360;9.650;2024-02-23T14:46:25;2.67;;;2.03;;
46377;SDS011;32083;47.360;9.650;2024-02-23T14:48:50;2.72;;;1.58;;
46377;SDS011;32083;47.360;9.650;2024-02-23T14:51:16;3.08;;;1.60;;
46377;SDS011;32083;47.360;9.650;2024-02-23T14:53:42;5.50;;;2.30;;
46377;SDS011;32083;47.360;9.650;2024-02-23T14:56:08;3.45;;;1.90;;
46377;SDS011;32083;47.360;9.650;2024-02-23T14:58:34;2.92;;;1.65;;
46377;SDS011;32083;47.360;9.650;2024-02-23T15:01:00;2.35;;;1.67;;
46377;SDS011;32083;47.360;9.650;2024-02-23T15:03:25;2.03;;;1.60;;
46377;SDS011;32083;47.360;9.650;2024-02-23T15:05:51;8.82;;;1.92;;
46377;SDS011;32083;47.360;9.650;2024-02-23T15:08:17;3.58;;;1.67;;
46377;SDS011;32083;47.360;9.650;2024-02-23T15:10:43;3.33;;;2.00;;
46377;SDS011;32083;47.360;9.650;2024-02-23T15:13:11;3.22;;;2.00;;
46377;SDS011;32083;47.360;9.650;2024-02-23T15:15:37;1.90;;;1.30;;
46377;SDS011;32083;47.360;9.650;2024-02-23T15:18:05;1.40;;;1.10;;
46377;SDS011;32083;47.360;9.650;2024-02-23T15:20:31;2.03;;;0.93;;
46377;SDS011;32083;47.360;9.650;2024-02-23T15:22:57;2.75;;;1.42;;
46377;SDS011;32083;47.360;9.650;2024-02-23T15:25:23;3.33;;;1.33;;
46377;SDS011;32083;47.360;9.650;2024-02-23T15:27:49;2.08;;;1.20;;
46377;SDS011;32083;47.360;9.650;2024-02-23T15:30:17;4.07;;;1.15;;
46377;SDS011;32083;47.360;9.650;2024-02-23T15:32:43;1.08;;;0.80;;
46377;SDS011;32083;47.360;9.650;2024-02-23T15:35:09;2.05;;;0.90;;
46377;SDS011;32083;47.360;9.650;2024-02-23T15:37:35;2.42;;;1.33;;
46377;SDS011;32083;47.360;9.650;2024-02-23T15:40:01;1.92;;;1.50;;
46377;SDS011;32083;47.360;9.650;2024-02-23T15:42:28;1.15;;;0.73;;
46377;SDS011;32083;47.360;9.650;2024-02-23T15:44:55;1.38;;;0.75;;
46377;SDS011;32083;47.360;9.650;2024-02-23T15:47:22;0.80;;;0.43;;
46377;SDS011;32083;47.360;9.650;2024-02-23T15:49:48;1.38;;;0.90;;
46377;SDS011;32083;47.360;9.650;2024-02-23T15:52:13;1.65;;;0.88;;
46377;SDS011;32083;47.360;9.650;2024-02-23T15:54:39;3.15;;;1.70;;
46377;SDS011;32083;47.360;9.650;2024-02-23T15:57:05;5.00;;;1.92;;
46377;SDS011;32083;47.360;9.650;2024-02-23T15:59:31;3.47;;;1.90;;
46377;SDS011;32083;47.360;9.650;2024-02-23T16:01:57;2.22;;;1.50;;
46377;SDS011;32083;47.360;9.650;2024-02-23T16:04:25;2.83;;;1.27;;
46377;SDS011;32083;47.360;9.650;2024-02-23T16:06:52;3.90;;;1.48;;
46377;SDS011;32083;47.360;9.650;2024-02-23T16:09:18;3.03;;;1.98;;
46377;SDS011;32083;47.360;9.650;2024-02-23T16:11:44;2.40;;;1.67;;
46377;SDS011;32083;47.360;9.650;2024-02-23T16:14:14;3.17;;;1.38;;
46377;SDS011;32083;47.360;9.650;2024-02-23T16:16:41;2.40;;;1.40;;
46377;SDS011;32083;47.360;9.650;2024-02-23T16:19:07;8.73;;;1.50;;
46377;SDS011;32083;47.360;9.650;2024-02-23T16:21:37;5.57;;;1.70;;
46377;SDS011;32083;47.360;9.650;2024-02-23T16:24:04;2.78;;;1.60;;
46377;SDS011;32083;47.360;9.650;2024-02-23T16:26:31;2.22;;;1.92;;
46377;SDS011;32083;47.360;9.650;2024-02-23T16:29:01;1.92;;;1.20;;
46377;SDS011;32083;47.360;9.650;2024-02-23T16:31:28;2.65;;;1.77;;
46377;SDS011;32083;47.360;9.650;2024-02-23T16:33:54;2.50;;;1.42;;
46377;SDS011;32083;47.360;9.650;2024-02-23T16:36:20;3.70;;;1.85;;
46377;SDS011;32083;47.360;9.650;2024-02-23T16:38:46;3.90;;;1.70;;
46377;SDS011;32083;47.360;9.650;2024-02-23T16:41:13;3.10;;;1.42;;
46377;SDS011;32083;47.360;9.650;2024-02-23T16:43:39;2.22;;;1.23;;
46377;SDS011;32083;47.360;9.650;2024-02-23T16:46:05;2.85;;;1.52;;
46377;SDS011;32083;47.360;9.650;2024-02-23T16:48:31;2.15;;;1.05;;
46377;SDS011;32083;47.360;9.650;2024-02-23T16:50:57;2.58;;;1.45;;
46377;SDS011;32083;47.360;9.650;2024-02-23T16:53:24;1.58;;;1.13;;
46377;SDS011;32083;47.360;9.650;2024-02-23T16:55:50;2.42;;;1.40;;
46377;SDS011;32083;47.360;9.650;2024-02-23T16:58:16;2.83;;;1.42;;
46377;SDS011;32083;47.360;9.650;2024-02-23T17:00:47;2.95;;;1.60;;
46377;SDS011;32083;47.360;9.650;2024-02-23T17:03:14;2.15;;;1.52;;
46377;SDS011;32083;47.360;9.650;2024-02-23T17:05:40;2.53;;;1.70;;
46377;SDS011;32083;47.360;9.650;2024-02-23T17:08:06;2.83;;;1.30;;
46377;SDS011;32083;47.360;9.650;2024-02-23T17:10:32;4.30;;;1.42;;
46377;SDS011;32083;47.360;9.650;2024-02-23T17:12:58;2.78;;;1.60;;
46377;SDS011;32083;47.360;9.650;2024-02-23T17:15:24;2.97;;;1.55;;
46377;SDS011;32083;47.360;9.650;2024-02-23T17:17:50;2.85;;;1.33;;
46377;SDS011;32083;47.360;9.650;2024-02-23T17:20:17;2.38;;;1.50;;
46377;SDS011;32083;47.360;9.650;2024-02-23T17:22:43;2.72;;;1.75;;
46377;SDS011;32083;47.360;9.650;2024-02-23T17:25:10;2.25;;;1.63;;
46377;SDS011;32083;47.360;9.650;2024-02-23T17:27:37;2.50;;;1.65;;
46377;SDS011;32083;47.360;9.650;2024-02-23T17:30:03;4.43;;;1.90;;
46377;SDS011;32083;47.360;9.650;2024-02-23T17:32:30;2.45;;;1.80;;
46377;SDS011;32083;47.360;9.650;2024-02-23T17:34:56;2.50;;;1.70;;
46377;SDS011;32083;47.360;9.650;2024-02-23T17:37:22;3.85;;;2.08;;
46377;SDS011;32083;47.360;9.650;2024-02-23T17:39:50;2.72;;;1.70;;
46377;SDS011;32083;47.360;9.650;2024-02-23T17:42:17;2.47;;;1.60;;
46377;SDS011;32083;47.360;9.650;2024-02-23T17:44:43;4.15;;;1.60;;
46377;SDS011;32083;47.360;9.650;2024-02-23T17:47:09;4.10;;;1.58;;
46377;SDS011;32083;47.360;9.650;2024-02-23T17:49:35;4.53;;;2.40;;
46377;SDS011;32083;47.360;9.650;2024-02-23T17:52:01;3.88;;;2.30;;
46377;SDS011;32083;47.360;9.650;2024-02-23T17:54:27;4.00;;;2.47;;
46377;SDS011;32083;47.360;9.650;2024-02-23T17:56:54;3.40;;;2.15;;
46377;SDS011;32083;47.360;9.650;2024-02-23T17:59:20;5.05;;;2.00;;
46377;SDS011;32083;47.360;9.650;2024-02-23T18:01:46;4.75;;;2.25;;
46377;SDS011;32083;47.360;9.650;2024-02-23T18:04:13;4.55;;;2.13;;
46377;SDS011;32083;47.360;9.650;2024-02-23T18:06:39;2.47;;;1.65;;
46377;SDS011;32083;47.360;9.650;2024-02-23T18:09:05;3.47;;;2.10;;
46377;SDS011;32083;47.360;9.650;2024-02-23T18:11:31;3.20;;;1.90;;
46377;SDS011;32083;47.360;9.650;2024-02-23T18:13:57;5.60;;;3.33;;
46377;SDS011;32083;47.360;9.650;2024-02-23T18:16:23;6.50;;;4.32;;
46377;SDS011;32083;47.360;9.650;2024-02-23T18:18:49;4.40;;;3.80;;
46377;SDS011;32083;47.360;9.650;2024-02-23T18:21:18;4.40;;;2.95;;
46377;SDS011;32083;47.360;9.650;2024-02-23T18:23:45;4.35;;;2.08;;
46377;SDS011;32083;47.360;9.650;2024-02-23T18:26:12;2.83;;;1.70;;
46377;SDS011;32083;47.360;9.650;2024-02-23T18:28:39;2.97;;;1.45;;
46377;SDS011;32083;47.360;9.650;2024-02-23T18:31:06;2.85;;;1.52;;
46377;SDS011;32083;47.360;9.650;2024-02-23T18:33:33;2.35;;;1.48;;
46377;SDS011;32083;47.360;9.650;2024-02-23T18:35:59;2.80;;;1.52;;
46377;SDS011;32083;47.360;9.650;2024-02-23T18:38:25;2.60;;;1.40;;
46377;SDS011;32083;47.360;9.650;2024-02-23T18:40:51;2.00;;;1.40;;
46377;SDS011;32083;47.360;9.650;2024-02-23T18:43:17;3.05;;;1.45;;
46377;SDS011;32083;47.360;9.650;2024-02-23T18:45:43;3.88;;;1.67;;
46377;SDS011;32083;47.360;9.650;2024-02-23T18:48:10;2.35;;;1.75;;
46377;SDS011;32083;47.360;9.650;2024-02-23T18:50:36;2.20;;;1.70;;
46377;SDS011;32083;47.360;9.650;2024-02-23T18:53:01;2.90;;;1.30;;
46377;SDS011;32083;47.360;9.650;2024-02-23T18:55:27;2.25;;;1.23;;
46377;SDS011;32083;47.360;9.650;2024-02-23T18:57:54;2.58;;;1.52;;
46377;SDS011;32083;47.360;9.650;2024-02-23T19:00:20;1.58;;;1.25;;
46377;SDS011;32083;47.360;9.650;2024-02-23T19:02:46;1.95;;;1.25;;
46377;SDS011;32083;47.360;9.650;2024-02-23T19:05:12;5.78;;;1.70;;
46377;SDS011;32083;47.360;9.650;2024-02-23T19:07:39;2.75;;;1.67;;
46377;SDS011;32083;47.360;9.650;2024-02-23T19:10:05;3.08;;;1.75;;
46377;SDS011;32083;47.360;9.650;2024-02-23T19:12:31;2.33;;;1.48;;
46377;SDS011;32083;47.360;9.650;2024-02-23T19:14:58;2.63;;;1.35;;
46377;SDS011;32083;47.360;9.650;2024-02-23T19:17:24;2.70;;;1.50;;
46377;SDS011;32083;47.360;9.650;2024-02-23T19:19:50;2.33;;;1.13;;
46377;SDS011;32083;47.360;9.650;2024-02-23T19:22:16;2.28;;;1.40;;
46377;SDS011;32083;47.360;9.650;2024-02-23T19:24:42;3.53;;;1.45;;
46377;SDS011;32083;47.360;9.650;2024-02-23T19:27:08;3.10;;;1.38;;
46377;SDS011;32083;47.360;9.650;2024-02-23T19:29:35;3.13;;;2.00;;
46377;SDS011;32083;47.360;9.650;2024-02-23T19:32:00;2.08;;;1.58;;
46377;SDS011;32083;47.360;9.650;2024-02-23T19:34:26;2.53;;;1.65;;
46377;SDS011;32083;47.360;9.650;2024-02-23T19:36:52;2.30;;;1.58;;
46377;SDS011;32083;47.360;9.650;2024-02-23T19:39:19;1.98;;;1.30;;
46377;SDS011;32083;47.360;9.650;2024-02-23T19:41:46;2.70;;;1.05;;
46377;SDS011;32083;47.360;9.650;2024-02-23T19:44:12;1.92;;;0.90;;
46377;SDS011;32083;47.360;9.650;2024-02-23T19:46:38;2.28;;;0.93;;
46377;SDS011;32083;47.360;9.650;2024-02-23T19:49:04;1.40;;;0.95;;
46377;SDS011;32083;47.360;9.650;2024-02-23T19:51:30;1.23;;;0.77;;
46377;SDS011;32083;47.360;9.650;2024-02-23T19:53:56;1.17;;;0.60;;
46377;SDS011;32083;47.360;9.650;2024-02-23T19:56:22;2.03;;;0.98;;